ADDS METAR Data INFO
IDs: Format: Raw Decoded Include TAF

Data at: 1415 UTC 12 Dec 2017

PAPM 121407Z AUTO 06020KT 10SM OVC029 02/01 A2919 RMK AO2 FZRANO
PAPM 121356Z AUTO 07019KT 10SM OVC031 02/01 A2920 RMK AO2 RAE06 SLP889 P0000 T00220006 FZRANO
PAPM 121318Z AUTO 06020KT 10SM FEW013 SCT026 OVC031 02/01 A2920 RMK AO2 RAE06 P0000 FZRANO
PAPM 121256Z AUTO 05022KT 10SM -RA BKN018 OVC023 02/01 A2920 RMK AO2 RAB22UPB40E42 SLP892 P0000 T00170011 FZRANO
PAPM 121156Z AUTO 04018KT 10SM OVC018 01/01 A2921 RMK AO2 RAE21UPB21E39 SLP894 P0000 60001 70003 T00110006 10017 20006 56012 FZRANO
PAPM 121122Z AUTO 05017KT 10SM UP BKN018 BKN028 OVC047 01/00 A2921 RMK AO2 RAE21UPB21 P0000 FZRANO
PAPM 121056Z AUTO 05018KT 10SM -RA FEW020 BKN037 OVC047 01/00 A2921 RMK AO2 UPB01E52RAB52 SLP895 P0000 T00060000 FZRANO
PAPM 121003Z AUTO 05019KT 10SM UP SCT024 BKN038 OVC045 01/01 A2922 RMK AO2 UPB01 P0000 FZRANO
PAPM 120956Z AUTO 05019KT 10SM FEW021 BKN026 OVC045 01/01 A2922 RMK AO2 RAE0857B46E55UPB0857E13 SLP897 P0001 T00110006 FZRANO
PAPM 120942Z AUTO 05018KT 10SM BKN024 OVC049 01/01 A2922 RMK AO2 RAE0857UPB0857E13 P0001 FZRANO
PAPM 120933Z AUTO 04014KT 10SM SCT022 OVC049 01/00 A2923 RMK AO2 RAE0857UPB0857E13 P0000 FZRANO
PAPM 120856Z AUTO 02011KT 10SM -RA BKN024 OVC029 01/00 A2925 RMK AO2 UPE23RAB23 SLP906 P0000 60000 T00060000 400221039 58006 FZRANO
PAPM 120830Z AUTO 03012KT 10SM -RA BKN028 OVC038 01/00 A2925 RMK AO2 UPE23RAB23 P0000 FZRANO
PAPM 120756Z AUTO 02012KT 10SM UP SCT037 OVC047 01/00 A2925 RMK AO2 SLP908 P0000 T00060000 FZRANO
PAPM 120727Z AUTO 02011KT 10SM UP FEW023 BKN044 OVC055 01/00 A2926 RMK AO2 P0000 FZRANO
PAPM 120656Z AUTO 02010KT 10SM UP OVC021 01/M01 A2926 RMK AO2 RAE14UPB19 SLP912 P0000 T00061006 FZRANO
PAPM 120639Z AUTO 02011KT 10SM UP BKN021 BKN034 OVC045 01/00 A2926 RMK AO2 RAE14UPB19 P0000 FZRANO
PAPM 120556Z AUTO 08011KT 10SM -RA FEW014 BKN039 OVC090 02/01 A2926 RMK AO2 UPB33E44RAB44 SLP912 P0000 60002 T00170006 10022 21011 50001 FZRANO
PAPM 120521Z AUTO 05010KT 10SM OVC014 02/01 A2927 RMK AO2 FZRANO
PAPM 120456Z AUTO 05013KT 10SM OVC016 02/01 A2927 RMK AO2 SLP914 T00170006 FZRANO
PAPM 120437Z AUTO 05010KT 10SM BKN018 BKN035 02/01 A2927 RMK AO2 FZRANO
PAPM 120407Z AUTO 03003KT 10SM FEW016 OVC039 01/01 A2927 RMK AO2 FZRANO
PAPM 120256Z AUTO 08011KT 10SM BKN010 BKN014 OVC022 02/01 A2926 RMK AO2 UPE03B38E42RAB29E38 SLP911 P0000 60002 T00170011 53012 FZRANO
PAPM 120205Z AUTO 09009KT 10SM BKN011 BKN018 OVC023 02/01 A2925 RMK AO2 UPE03 P0000 FZRANO
PAPM 120156Z AUTO 09010KT 5SM UP BR FEW009 BKN015 OVC033 02/01 A2924 RMK AO2 UPB22 SLP905 P0002 T00170011 FZRANO
PAPM 120151Z AUTO 10010KT 3SM UP BR SCT009 BKN013 OVC033 02/01 A2924 RMK AO2 UPB22 P0000 FZRANO
PAPM 120135Z AUTO 09006KT 6SM BR BKN009 OVC035 01/01 A2924 RMK AO2 UPB22E35 CIG 007V012 P0000 FZRANO
PAPM 120113Z AUTO 09005KT 5SM BR SCT007 BKN013 OVC034 01/00 A2923 RMK AO2 FZRANO
PAPM 120046Z AUTO 06008KT 10SM SCT009 BKN019 OVC048 01/M01 A2922 RMK AO2 SNE28 P0000 FZRANO
PAPM 120029Z AUTO 06006KT 9SM BKN015 OVC021 M01/M01 A2922 RMK AO2 SNE28 P0000 FZRANO
PAPM 112356Z AUTO 04010KT 10SM -SN OVC011 M01/M02 A2921 RMK AO2 UPB15E23B46E51SNB23E46B51 SLP892 P0000 60000 T10111017 11011 21039 51021 FZRANO
PAPM 112354Z AUTO 04010KT 10SM -SN BKN008 OVC013 M01/M02 A2921 RMK AO2 UPB15E23B46E51SNB23E46B51 CIG 007V011 P0000 FZRANO
PAPM 112348Z AUTO 04009KT 9SM UP OVC011 M01/M02 A2921 RMK AO2 UPB15E23B46SNB23E46 P0000 FZRANO
PAPM 112310Z AUTO 00000KT 9SM OVC008 M02/M02 A2920 RMK AO2 CIG 004V012 FZRANO
PAPM 112256Z AUTO 05005KT 8SM OVC010 M02/M02 A2920 RMK AO2 SNE09 CIG 007V013 SLP890 P0000 T10171022 FZRANO
PAPM 112156Z AUTO 13003KT 9SM -SN BKN010 OVC015 M02/M03 A2918 RMK AO2 SNB00E12B47 CIG 008V013 SLP884 P0000 T10171028 FZRANO
PAPM 112144Z AUTO 14004KT 10SM OVC014 M02/M03 A2917 RMK AO2 SNB00E12 P0000 FZRANO
PAPM 112115Z AUTO 17005KT 9SM BKN016 BKN036 OVC060 M02/M03 A2915 RMK AO2 SNB00E12 P0000 FZRANO
PAPM 112056Z AUTO 16006KT 10SM FEW040 BKN060 OVC090 M02/M03 A2914 RMK AO2 SNE16 SLP872 P0000 60000 T10221033 51040 FZRANO
PAPM 111956Z AUTO 33003KT 9SM -SN BKN055 BKN070 M03/M03 A2911 RMK AO2 SNB1857E31B51 SLP859 P0000 T10281033 FZRANO
PAPM 111925Z AUTO 34005KT 9SM -SN FEW007 BKN048 OVC060 M03/M04 A2908 RMK AO2 SNB1857 P0000 FZRANO
PAPM 111856Z AUTO 32008KT 10SM OVC065 M03/M04 A2907 RMK AO2 SLP846 T10331044 FZRANO
PAPM 111756Z AUTO 32012KT 10SM OVC065 M04/M04 A2903 RMK AO2 SLP831 60000 T10391044 11011 21039 53022 FZRANO
PAPM 111656Z AUTO 32014KT 10SM FEW005 OVC043 M03/M04 A2899 RMK AO2 SLP820 T10331039 FZRANO
PAPM 111653Z AUTO 32014KT 10SM SCT005 OVC043 M03/M04 A2899 RMK AO2 FZRANO
PAPM 111619Z AUTO 32012KT 10SM BKN005 OVC044 M03/M03 A2898 RMK AO2 FZRANO
PAPM 111608Z AUTO 32011KT 10SM SCT005 OVC044 M03/M03 A2897 RMK AO2 FZRANO
PAPM 111556Z AUTO 32014KT 10SM BKN005 OVC044 M03/M03 A2896 RMK AO2 SLP809 T10281033 FZRANO
PAPM 111544Z AUTO 32016KT 10SM BKN005 OVC050 M02/M03 A2896 RMK AO2 FZRANO
PAPM 111456Z AUTO 32015KT 10SM SCT005 OVC050 M02/M03 A2894 RMK AO2 SLP801 60000 T10221028 51009 FZRANO
PAPM 111453Z AUTO 31014KT 10SM BKN005 OVC050 M02/M03 A2894 RMK AO2 FZRANO
PAPM 111446Z AUTO 31013KT 10SM SCT005 OVC050 M02/M02 A2893 RMK AO2 FZRANO
PAPM 111356Z AUTO 31010KT 10SM OVC005 M01/M02 A2891 RMK AO2 SLP794 T10111022 FZRANO
PAPM 111316Z AUTO 33004KT 10SM BKN005 OVC060 M02/M02 A2891 RMK AO2 FZRANO
PAPM 111308Z AUTO 36003KT 10SM SCT005 OVC060 M02/M03 A2891 RMK AO2 FZRANO
PAPM 111256Z AUTO 00000KT 10SM OVC060 M02/M03 A2891 RMK AO2 SNB24E35 SLP792 P0000 T10171028 FZRANO
PAPM 111156Z AUTO 31009KT 10SM OVC060 M03/M03 A2891 RMK AO2 UPB08E15SNE08B15E24 SLP792 P0000 60001 70001 T10281033 11017 21044 56016 FZRANO
PAPM 111056Z AUTO 32011KT 9SM -SN OVC041 M02/M03 A2892 RMK AO2 UPE06SNB06 SLP795 P0000 T10221033 FZRANO
PAPM 111032Z AUTO 32010KT 9SM -SN SCT025 SCT029 OVC035 M02/M03 A2893 RMK AO2 UPE06SNB06 P0000 FZRANO
PAPM 111015Z AUTO 30009KT 7SM -SN BKN024 OVC033 M02/M03 A2893 RMK AO2 UPE06SNB06 P0000 FZRANO
PAPM 110956Z AUTO 31009KT 10SM UP OVC032 M02/M03 A2894 RMK AO2 UPB46SNE46 SLP802 P0000 T10171028 FZRANO
PAPM 110946Z AUTO 30008KT 9SM UP BKN030 OVC035 M02/M03 A2894 RMK AO2 UPB46SNE46 P0000 FZRANO
PAPM 110920Z AUTO 32009KT 6SM -SN BR BKN029 OVC036 M03/M04 A2895 RMK AO2 P0000 FZRANO
PAPM 110856Z AUTO 32010KT 7SM -SN SCT033 BKN044 OVC055 M03/M04 A2896 RMK AO2 SNB39 SLP808 P0000 60001 T10331039 400111089 56020 FZRANO
PAPM 110756Z AUTO 32011KT 10SM SCT085 OVC110 M04/M05 A2897 RMK AO2 SLP812 T10391050 FZRANO
PAPM 110656Z AUTO 33016KT 10SM OVC110 M03/M04 A2899 RMK AO2 SLP818 P0001 T10331044 FZRANO
PAPM 110556Z AUTO 33014KT 10SM CLR M03/M04 A2902 RMK AO2 SLP828 60000 T10331044 10011 21044 56045 FZRANO
PAPM 110456Z AUTO 34012KT 10SM CLR M03/M04 A2906 RMK AO2 SLP842 T10281039 FZRANO
PAPM 110356Z AUTO 36010KT 10SM CLR 01/M01 A2911 RMK AO2 SLP859 T00061006 FZRANO
PAPM 110256Z AUTO VRB03KT 10SM FEW065 01/M01 A2915 RMK AO2 SLP874 60000 T00061006 58030 FZRANO